createdAt,value
2023-03-21T00:00:38.761Z,8.75
2023-03-21T00:03:40.102Z,8.90
2023-03-21T00:06:41.396Z,8.48
2023-03-21T00:09:42.684Z,8.40
2023-03-21T00:12:43.976Z,7.90
2023-03-21T00:15:54.117Z,7.47
2023-03-21T00:19:04.956Z,7.55
2023-03-21T00:22:08.385Z,7.97
2023-03-21T00:25:10.149Z,7.00
2023-03-21T00:28:11.428Z,7.27
2023-03-21T00:31:12.722Z,7.05
2023-03-21T00:34:14.121Z,7.13
2023-03-21T00:37:15.536Z,6.82
2023-03-21T00:40:26.737Z,6.80
2023-03-21T00:43:30.511Z,6.37
2023-03-21T00:46:42.768Z,6.45
2023-03-21T00:49:46.676Z,6.60
2023-03-21T00:52:47.946Z,6.82
2023-03-21T00:55:49.239Z,6.60
2023-03-21T00:58:50.520Z,6.37
2023-03-21T01:01:51.824Z,6.28
2023-03-21T01:04:53.138Z,6.43
2023-03-21T01:07:54.434Z,6.32
2023-03-21T01:10:55.715Z,6.43
2023-03-21T01:14:10.859Z,6.23
2023-03-21T01:17:18.260Z,5.70
2023-03-21T01:20:19.544Z,6.28
2023-03-21T01:23:20.834Z,7.18
2023-03-21T01:26:22.100Z,6.82
2023-03-21T01:29:23.397Z,6.97
2023-03-21T01:32:24.693Z,6.45
2023-03-21T01:35:27.040Z,6.70
2023-03-21T01:38:31.191Z,6.78
2023-03-21T01:41:47.751Z,6.68
2023-03-21T01:44:49.114Z,7.03
2023-03-21T01:47:50.531Z,8.05
2023-03-21T01:50:51.827Z,7.65
2023-03-21T01:53:53.120Z,7.97
2023-03-21T01:56:54.467Z,7.18
2023-03-21T01:59:55.762Z,7.40
2023-03-21T02:03:06.065Z,7.10
2023-03-21T02:06:12.686Z,7.45
2023-03-21T02:09:13.983Z,6.95
2023-03-21T02:12:15.260Z,7.15
2023-03-21T02:15:16.553Z,6.63
2023-03-21T02:18:17.880Z,6.32
2023-03-21T02:21:19.187Z,6.43
2023-03-21T02:24:20.449Z,6.40
2023-03-21T02:27:21.764Z,6.47
2023-03-21T02:30:29.435Z,6.03
2023-03-21T02:33:33.299Z,7.22
2023-03-21T02:36:34.637Z,6.53
2023-03-21T02:39:35.957Z,6.40
2023-03-21T02:42:37.267Z,5.88
2023-03-21T02:45:38.574Z,5.93
2023-03-21T02:48:50.274Z,6.07
2023-03-21T02:51:54.246Z,6.10
2023-03-21T02:54:55.627Z,5.45
2023-03-21T02:57:56.963Z,5.38
2023-03-21T03:00:58.255Z,5.23
2023-03-21T03:03:59.586Z,5.57
2023-03-21T03:07:00.886Z,5.45
2023-03-21T03:10:02.198Z,4.85
2023-03-21T03:13:03.497Z,5.07
2023-03-21T03:16:04.827Z,4.37
2023-03-21T03:19:06.104Z,4.45
2023-03-21T03:22:07.407Z,5.15
2023-03-21T03:25:19.708Z,4.95
2023-03-21T03:28:26.199Z,4.82
2023-03-21T03:31:27.524Z,4.70
2023-03-21T03:34:28.862Z,4.18
2023-03-21T03:37:31.350Z,4.95
2023-03-21T03:40:33.947Z,4.43
2023-03-21T03:43:35.715Z,4.53
2023-03-21T03:46:37.091Z,4.70
2023-03-21T03:49:38.433Z,4.38
2023-03-21T03:52:50.022Z,4.38
2023-03-21T03:55:56.472Z,4.97
2023-03-21T03:58:57.781Z,3.60
2023-03-21T04:01:59.348Z,4.17
2023-03-21T04:05:00.638Z,4.20
2023-03-21T04:08:01.935Z,4.35
2023-03-21T04:11:03.290Z,3.70
2023-03-21T04:14:04.592Z,4.28
2023-03-21T04:17:05.884Z,4.30
2023-03-21T04:20:12.008Z,4.18
2023-03-21T04:23:14.312Z,3.70
2023-03-21T04:26:15.627Z,4.07
2023-03-21T04:29:16.911Z,3.53
2023-03-21T04:32:18.255Z,3.73
2023-03-21T04:35:19.608Z,3.63
2023-03-21T04:38:20.889Z,4.05
2023-03-21T04:41:22.201Z,4.18
2023-03-21T04:44:23.715Z,4.78
2023-03-21T04:47:25.018Z,3.93
2023-03-21T04:50:26.310Z,3.95
2023-03-21T04:53:27.607Z,3.72
2023-03-21T04:56:28.916Z,4.47
2023-03-21T04:59:30.193Z,4.57
2023-03-21T05:02:31.492Z,4.40
2023-03-21T05:05:32.807Z,4.28
2023-03-21T05:08:34.087Z,4.32
2023-03-21T05:11:35.386Z,4.45
2023-03-21T05:14:36.697Z,4.43
2023-03-21T05:17:38.003Z,4.10
2023-03-21T05:20:39.321Z,3.95
2023-03-21T05:23:40.631Z,4.22
2023-03-21T05:26:41.933Z,3.58
2023-03-21T05:29:43.213Z,4.38
2023-03-21T05:32:44.487Z,4.50
2023-03-21T05:35:45.820Z,4.35
2023-03-21T05:38:47.117Z,4.15
2023-03-21T05:41:48.419Z,4.10
2023-03-21T05:44:49.686Z,4.05
2023-03-21T05:47:51.001Z,4.23
2023-03-21T05:50:52.371Z,4.20
2023-03-21T05:53:53.685Z,4.40
2023-03-21T05:56:54.997Z,4.15
2023-03-21T05:59:56.306Z,4.18
2023-03-21T06:02:57.632Z,4.17
2023-03-21T06:05:58.948Z,4.20
2023-03-21T06:09:00.252Z,4.45
2023-03-21T06:12:01.579Z,3.72
2023-03-21T06:15:02.877Z,4.00
2023-03-21T06:18:04.185Z,3.80
2023-03-21T06:21:05.490Z,3.80
2023-03-21T06:24:06.794Z,4.07
2023-03-21T06:27:08.100Z,3.25
2023-03-21T06:30:09.398Z,3.75
2023-03-21T06:33:10.703Z,3.40
2023-03-21T06:36:12.007Z,2.80
2023-03-21T06:39:13.305Z,3.72
2023-03-21T06:42:14.614Z,3.40
2023-03-21T06:45:16.903Z,4.00
2023-03-21T06:48:18.283Z,4.13
2023-03-21T06:51:19.587Z,4.63
2023-03-21T06:54:20.907Z,4.88
2023-03-21T06:57:22.238Z,5.03
2023-03-21T07:00:23.520Z,3.53
2023-03-21T07:03:24.831Z,3.40
2023-03-21T07:06:26.215Z,4.05
2023-03-21T07:09:27.506Z,4.10
2023-03-21T07:12:28.795Z,3.65
2023-03-21T07:15:30.109Z,3.95
2023-03-21T07:18:31.414Z,4.23
2023-03-21T07:21:32.703Z,3.88
2023-03-21T07:24:34.011Z,4.10
2023-03-21T07:27:35.358Z,3.90
2023-03-21T07:30:36.682Z,3.30
2023-03-21T07:33:37.998Z,3.90
2023-03-21T07:36:39.299Z,3.80
2023-03-21T07:39:40.612Z,4.65
2023-03-21T07:42:41.937Z,4.25
2023-03-21T07:45:43.308Z,4.05
2023-03-21T07:48:44.699Z,4.07
2023-03-21T07:51:46.004Z,3.67
2023-03-21T07:54:47.291Z,3.97
2023-03-21T07:57:48.572Z,3.80
2023-03-21T08:00:49.890Z,3.20
2023-03-21T08:03:51.300Z,3.77
2023-03-21T08:06:52.640Z,12.88
2023-03-21T08:09:53.940Z,10.45
2023-03-21T08:12:55.258Z,8.82
2023-03-21T08:15:56.627Z,9.50
2023-03-21T08:18:58.002Z,9.17
2023-03-21T08:21:59.317Z,6.85
2023-03-21T08:25:00.625Z,4.95
2023-03-21T08:28:01.943Z,4.60
2023-03-21T08:31:03.321Z,5.38
2023-03-21T08:34:04.653Z,3.67
2023-03-21T08:37:05.974Z,3.50
